Startpagina
METAR-TAF:

METAR-TAF

Vliegvelden :

Vliegbasis Bevekom

Bevekom, België

breedte: 50-45N, lengte: 004-46E, hoogte: 105 m

Actueel weer

Dit bericht is 24 minuten geleden gemaakt, om 15:25 UTC
Wind 4 kt uit het zuidoosten
Temperatuur 12°C
Vochtigheid 67%
Druk 1026 hPa
Zicht 10 km of meer
Verspreide wolken op 23000 ft

METAR: EBBE 141525Z 14004KT 9999 SCT230 12/06 Q1026 BLU BLU

Tijdstip: 16:49 (15:49 UTC)

Verwachting

Dit bericht is 4 uur en het 8 minuten geleden gemaakt, om 11:41 UTC
Verwachting geldig van 14 om 13 UTC tot 14 om 22 UTC
Wind 10 kt uit het zuiden
Zicht 10 km of meer
Verspreide wolken op 24000 ft
Kans 40% :
Tijdelijke
van 14 om 13 UTC tot 14 om 15 UTC
Verspreide wolken op 2000 ft

TAF: EBBE 141141Z 1413/1422 17010KT 9999 SCT240 PROB40 TEMPO 1413/1415 SCT020

Waarnemingen en weersverwachtingen van meer dan 4000 vliegvelden (METAR en TAF).

De beschikbare stations zijn de gele en rode punten op de kaart.

Ga met uw muis naar het station om de naam te zien.

Klik dan om waarnemingen en weersverwachtingen te zien.

kaart wijzigen: klik op de groene knoppen met een zwart kruis om in te zoomen, op de groene knop met een streepje om uit te zoomen of op de groene pijlen voor aangrenzende kaarten.


METAR-TAF: